METAR EVRA 232120Z 24004KT 9999 OVC011 01/M01 Q1032 R18/510195 NOSIG =

Controllers Online

PositionControllerOnline
EVRA_APPRyan Wilson00:52

Booked ATC Today

* Times are UTC

The time is now

UTC: 

Local: 

Latvia vACC on twitter

Official vACC of:

  

Latvia vACC on Facebook